Time;durP1;ratioP1;P1;durP2;ratioP2;P2;SDS_P1;SDS_P2;PMS_P1;PMS_P2;Temp;Humidity;BMP_temperature;BMP_pressure;BME280_temperature;BME280_humidity;BME280_pressure;Samples;Min_cycle;Max_cycle;Signal;HPM_P1;HPM_P2
2023/04/17 00:01:04;;;;;;;11.00;8.47;;;12.20;99.90;;;;;;937542;149;27297;-72
2023/04/17 00:03:31;;;;;;;9.30;8.40;;;12.30;99.90;;;;;;918068;152;27349;-72
2023/04/17 00:05:57;;;;;;;10.03;8.87;;;12.20;99.90;;;;;;919325;155;27371;-72
2023/04/17 00:08:24;;;;;;;9.27;8.37;;;12.20;99.90;;;;;;921474;152;27368;-72
2023/04/17 00:10:50;;;;;;;9.50;8.50;;;12.20;99.90;;;;;;920628;152;27332;-72
2023/04/17 00:13:17;;;;;;;10.93;9.73;;;12.20;99.90;;;;;;929016;153;27403;-72
2023/04/17 00:15:44;;;;;;;10.17;9.17;;;12.20;99.90;;;;;;936359;153;27328;-72
2023/04/17 00:18:10;;;;;;;10.40;9.40;;;12.20;99.90;;;;;;926401;152;27464;-72
2023/04/17 00:20:37;;;;;;;10.20;9.20;;;12.20;99.90;;;;;;929918;153;27294;-72
2023/04/17 00:23:03;;;;;;;10.23;9.30;;;12.20;99.90;;;;;;937563;151;27829;-72
2023/04/17 00:25:30;;;;;;;11.57;10.37;;;12.20;99.90;;;;;;926069;151;27324;-72
2023/04/17 00:27:57;;;;;;;10.73;9.63;;;12.20;99.90;;;;;;930023;151;27381;-72
2023/04/17 00:30:23;;;;;;;10.63;9.43;;;12.20;99.90;;;;;;937699;149;27314;-72
2023/04/17 00:32:50;;;;;;;11.13;10.00;;;12.20;99.90;;;;;;937367;149;27314;-72
2023/04/17 00:35:16;;;;;;;11.07;9.97;;;12.30;99.90;;;;;;930042;153;27411;-72
2023/04/17 00:37:43;;;;;;;10.83;9.73;;;12.30;99.90;;;;;;929447;153;27302;-72
2023/04/17 00:40:10;;;;;;;11.93;10.83;;;12.30;99.90;;;;;;935935;152;27482;-72
2023/04/17 00:42:36;;;;;;;11.20;10.00;;;12.30;99.90;;;;;;937503;151;27734;-72
2023/04/17 00:45:04;;;;;;;10.73;9.53;;;12.30;99.90;;;;;;941852;152;27405;-72
2023/04/17 00:47:30;;;;;;;11.10;10.00;;;12.30;99.90;;;;;;942372;151;27273;-72
2023/04/17 00:49:56;;;;;;;11.33;10.20;;;12.30;99.90;;;;;;944257;150;27427;-72
2023/04/17 00:52:26;;;;;;;10.07;9.07;;;12.30;99.90;;;;;;951109;147;27350;-73
2023/04/17 00:54:52;;;;;;;10.63;9.53;;;12.30;99.90;;;;;;950271;147;27373;-72
2023/04/17 00:57:19;;;;;;;11.13;10.03;;;12.30;99.90;;;;;;950225;147;27376;-72
2023/04/17 00:59:45;;;;;;;11.20;10.10;;;12.30;99.90;;;;;;950507;147;27298;-72
2023/04/17 01:02:12;;;;;;;13.23;10.13;;;12.30;99.90;;;;;;950264;147;27424;-72
2023/04/17 01:04:38;;;;;;;10.87;9.80;;;12.30;99.90;;;;;;950000;147;27416;-72
2023/04/17 01:07:05;;;;;;;11.40;10.00;;;12.30;99.90;;;;;;937874;149;27353;-72
2023/04/17 01:09:32;;;;;;;11.60;9.93;;;12.30;99.90;;;;;;948107;148;27444;-72
2023/04/17 01:12:17;;;;;;;10.83;9.73;;;12.30;99.90;;;;;;952155;149;27274;-72
2023/04/17 01:14:44;;;;;;;11.70;10.27;;;12.30;99.90;;;;;;937271;149;27396;-72
2023/04/17 01:17:13;;;;;;;11.30;10.10;;;12.30;99.90;;;;;;950580;148;27436;-72
2023/04/17 01:19:37;;;;;;;11.43;10.23;;;12.30;99.90;;;;;;949032;148;27410;-72
2023/04/17 01:22:03;;;;;;;10.63;9.60;;;12.30;99.90;;;;;;948988;148;27654;-72
2023/04/17 01:24:30;;;;;;;11.97;10.77;;;12.30;99.90;;;;;;952939;146;27303;-72
2023/04/17 01:26:56;;;;;;;12.00;10.73;;;12.30;99.90;;;;;;953208;146;27363;-72
2023/04/17 01:29:23;;;;;;;13.37;10.90;;;12.30;99.90;;;;;;948013;148;27545;-72
2023/04/17 01:31:49;;;;;;;11.47;10.27;;;12.30;99.90;;;;;;948026;148;27327;-72
2023/04/17 01:34:16;;;;;;;11.00;9.80;;;12.30;99.90;;;;;;947592;148;27776;-72
2023/04/17 01:36:43;;;;;;;13.27;10.93;;;12.30;99.90;;;;;;961121;146;27357;-72
2023/04/17 01:39:09;;;;;;;11.33;9.93;;;12.30;99.90;;;;;;955086;146;27355;-72
2023/04/17 01:41:36;;;;;;;12.10;10.87;;;12.30;99.90;;;;;;947400;148;27415;-72
2023/04/17 01:44:02;;;;;;;13.30;11.17;;;12.30;99.90;;;;;;947571;148;27360;-72
2023/04/17 01:46:29;;;;;;;11.40;10.13;;;12.30;99.90;;;;;;948364;148;27697;-72
2023/04/17 01:48:56;;;;;;;12.10;10.83;;;12.30;99.90;;;;;;947641;148;27411;-72
2023/04/17 01:51:22;;;;;;;12.40;11.20;;;12.30;99.90;;;;;;943097;148;27968;-72
2023/04/17 01:53:49;;;;;;;16.30;11.80;;;12.30;99.90;;;;;;944680;149;27407;-72
2023/04/17 01:56:16;;;;;;;11.73;10.63;;;12.30;99.90;;;;;;946457;147;27261;-72
2023/04/17 01:58:42;;;;;;;11.43;10.07;;;12.30;99.90;;;;;;939026;150;27287;-72
2023/04/17 02:01:09;;;;;;;12.63;10.83;;;12.30;99.90;;;;;;939227;150;27443;-72
2023/04/17 02:03:35;;;;;;;12.50;11.27;;;12.30;99.90;;;;;;938448;150;27299;-72
2023/04/17 02:06:02;;;;;;;12.87;11.07;;;12.20;99.90;;;;;;938889;150;27321;-72
2023/04/17 02:08:28;;;;;;;12.20;10.87;;;12.20;99.90;;;;;;938698;150;27311;-72
2023/04/17 02:10:55;;;;;;;12.27;10.97;;;12.10;99.90;;;;;;938267;150;27462;-72
2023/04/17 02:13:22;;;;;;;12.03;10.83;;;12.10;99.90;;;;;;939061;150;27677;-72
2023/04/17 02:15:48;;;;;;;12.17;10.87;;;12.10;99.90;;;;;;937649;150;27291;-72
2023/04/17 02:18:15;;;;;;;13.53;12.07;;;12.10;99.90;;;;;;939081;150;27427;-73
2023/04/17 02:20:41;;;;;;;13.30;12.00;;;12.10;99.90;;;;;;938029;150;27338;-72
2023/04/17 02:23:08;;;;;;;13.50;11.37;;;12.10;99.90;;;;;;938909;150;27459;-72
2023/04/17 02:25:35;;;;;;;12.80;11.50;;;12.10;99.90;;;;;;938242;150;27413;-73
2023/04/17 02:28:01;;;;;;;12.60;10.70;;;12.10;99.90;;;;;;938314;150;27323;-72
2023/04/17 02:30:28;;;;;;;12.07;10.87;;;12.10;99.90;;;;;;939187;150;27350;-72
2023/04/17 02:32:54;;;;;;;13.10;11.57;;;12.20;99.90;;;;;;938181;150;27307;-80
2023/04/17 02:35:21;;;;;;;12.50;11.20;;;12.20;99.90;;;;;;938457;150;27587;-80
2023/04/17 02:37:47;;;;;;;14.23;11.83;;;12.20;99.90;;;;;;937490;150;27322;-80
2023/04/17 02:40:14;;;;;;;13.60;12.13;;;12.20;99.90;;;;;;938041;150;27345;-79
2023/04/17 02:42:41;;;;;;;12.47;11.17;;;12.20;99.90;;;;;;938384;150;27392;-80
2023/04/17 02:45:07;;;;;;;15.20;12.23;;;12.20;99.90;;;;;;938856;150;27595;-80
2023/04/17 02:47:34;;;;;;;15.90;12.40;;;12.30;99.90;;;;;;939151;150;27369;-80
2023/04/17 02:50:01;;;;;;;15.23;12.37;;;12.30;99.90;;;;;;939321;150;27314;-80
2023/04/17 02:52:27;;;;;;;15.10;13.50;;;12.30;99.90;;;;;;930428;150;27428;-79
2023/04/17 02:54:55;;;;;;;13.87;12.47;;;12.20;99.90;;;;;;926977;150;27408;-80
2023/04/17 02:57:20;;;;;;;14.33;11.77;;;12.30;99.90;;;;;;927882;150;27365;-72
2023/04/17 02:59:47;;;;;;;13.50;12.03;;;12.30;99.90;;;;;;926950;150;27366;-73
2023/04/17 03:02:13;;;;;;;13.73;12.23;;;12.30;99.90;;;;;;927247;150;27303;-72
2023/04/17 03:04:40;;;;;;;16.17;13.90;;;12.30;99.90;;;;;;927470;150;27430;-72
2023/04/17 03:07:09;;;;;;;14.77;13.27;;;12.30;99.90;;;;;;927393;150;27350;-72
2023/04/17 03:09:33;;;;;;;13.60;12.30;;;12.30;99.90;;;;;;926184;150;27888;-72
2023/04/17 03:12:00;;;;;;;14.20;12.63;;;12.30;99.90;;;;;;926515;150;27395;-72
2023/04/17 03:14:26;;;;;;;14.33;12.90;;;12.30;99.90;;;;;;925992;150;27416;-72
2023/04/17 03:16:53;;;;;;;15.80;12.27;;;12.30;99.90;;;;;;926781;150;27437;-72
2023/04/17 03:19:20;;;;;;;15.43;12.67;;;12.30;99.90;;;;;;926610;150;27377;-72
2023/04/17 03:21:46;;;;;;;15.03;13.43;;;12.30;99.90;;;;;;926908;150;27350;-72
2023/04/17 03:24:13;;;;;;;14.67;13.17;;;12.30;99.90;;;;;;926637;150;27338;-72
2023/04/17 03:26:39;;;;;;;15.20;12.53;;;12.30;99.90;;;;;;926872;150;27310;-72
2023/04/17 03:29:06;;;;;;;15.07;13.07;;;12.30;99.90;;;;;;926669;150;27311;-72
2023/04/17 03:31:33;;;;;;;13.57;12.20;;;12.30;99.90;;;;;;927132;150;27378;-72
2023/04/17 03:33:59;;;;;;;15.87;14.07;;;12.30;99.90;;;;;;927110;150;27605;-72
2023/04/17 03:36:26;;;;;;;14.60;13.20;;;12.30;99.90;;;;;;925472;150;27353;-72
2023/04/17 03:38:54;;;;;;;15.20;13.60;;;12.30;99.90;;;;;;926266;150;27413;-72
2023/04/17 03:41:19;;;;;;;16.67;13.67;;;12.30;99.90;;;;;;925604;150;27721;-72
2023/04/17 03:43:46;;;;;;;16.37;14.53;;;12.30;99.90;;;;;;925980;150;27370;-72
2023/04/17 03:46:12;;;;;;;14.93;13.43;;;12.30;99.90;;;;;;926299;149;27427;-72
2023/04/17 03:48:39;;;;;;;14.77;13.20;;;12.30;99.90;;;;;;926616;150;27395;-72
2023/04/17 03:51:05;;;;;;;17.47;15.77;;;12.30;99.90;;;;;;926451;150;27441;-72
2023/04/17 03:53:32;;;;;;;17.00;15.07;;;12.20;99.90;;;;;;941989;149;27502;-72
2023/04/17 03:55:58;;;;;;;15.83;14.13;;;12.20;99.90;;;;;;945145;149;27429;-72
2023/04/17 03:58:25;;;;;;;16.40;14.47;;;12.20;99.90;;;;;;945000;149;27383;-72
2023/04/17 04:00:57;;;;;;;15.83;14.10;;;12.20;99.90;;;;;;945235;149;27322;-72
2023/04/17 04:03:18;;;;;;;16.57;14.77;;;12.20;99.90;;;;;;944807;149;27365;-72
2023/04/17 04:05:45;;;;;;;15.20;13.70;;;12.20;99.90;;;;;;944570;149;27857;-72
2023/04/17 04:08:11;;;;;;;15.33;13.17;;;12.20;99.90;;;;;;951075;147;27768;-72
2023/04/17 04:10:38;;;;;;;16.63;14.80;;;12.20;99.90;;;;;;941718;149;27341;-72
2023/04/17 04:13:05;;;;;;;15.97;14.27;;;12.20;99.90;;;;;;942703;149;27305;-72
2023/04/17 04:15:31;;;;;;;15.97;14.27;;;12.20;99.90;;;;;;941985;149;27368;-72
2023/04/17 04:17:58;;;;;;;16.57;14.80;;;12.20;99.90;;;;;;941683;149;27411;-72
2023/04/17 04:20:24;;;;;;;17.87;15.73;;;12.20;99.90;;;;;;942104;149;27388;-72
2023/04/17 04:22:51;;;;;;;16.20;14.47;;;12.20;99.90;;;;;;941878;149;27329;-72
2023/04/17 04:25:18;;;;;;;16.87;14.70;;;12.20;99.90;;;;;;940254;149;27367;-72
2023/04/17 04:27:48;;;;;;;17.37;15.43;;;12.20;99.90;;;;;;941444;149;27483;-72
2023/04/17 04:30:11;;;;;;;18.20;16.30;;;12.20;99.90;;;;;;941590;149;27321;-72
2023/04/17 04:32:38;;;;;;;17.77;15.97;;;12.20;99.90;;;;;;941459;149;27270;-72
2023/04/17 04:35:05;;;;;;;16.90;15.10;;;12.20;99.90;;;;;;941624;149;27438;-72
2023/04/17 04:37:31;;;;;;;15.67;14.07;;;12.20;99.90;;;;;;942119;149;27471;-72
2023/04/17 04:40:00;;;;;;;18.13;16.23;;;12.20;99.90;;;;;;941672;149;27505;-72
2023/04/17 04:42:24;;;;;;;18.47;16.57;;;12.20;99.90;;;;;;941398;149;27259;-72
2023/04/17 04:44:50;;;;;;;18.90;16.93;;;12.20;99.90;;;;;;941778;149;27342;-72
2023/04/17 04:47:18;;;;;;;19.03;16.70;;;12.20;99.90;;;;;;940913;149;27321;-72
2023/04/17 04:49:44;;;;;;;17.30;15.57;;;12.20;99.90;;;;;;941446;149;27377;-72
2023/04/17 04:52:11;;;;;;;17.27;15.50;;;12.30;99.90;;;;;;941587;149;27770;-72
2023/04/17 04:54:37;;;;;;;15.90;14.27;;;12.30;99.90;;;;;;927600;153;27330;-72
2023/04/17 04:57:03;;;;;;;17.70;15.30;;;12.30;99.90;;;;;;928161;152;27295;-72
2023/04/17 04:59:30;;;;;;;16.50;14.80;;;12.30;99.90;;;;;;929034;153;27361;-72
2023/04/17 05:01:57;;;;;;;16.70;15.00;;;12.30;99.90;;;;;;928498;152;27474;-72
2023/04/17 05:04:23;;;;;;;17.60;14.07;;;12.30;99.90;;;;;;933413;152;27439;-72
2023/04/17 05:06:50;;;;;;;16.63;14.00;;;12.30;99.90;;;;;;921470;151;27353;-72
2023/04/17 05:09:16;;;;;;;16.60;14.90;;;12.40;99.90;;;;;;926086;153;28168;-72
2023/04/17 05:11:43;;;;;;;17.97;14.87;;;12.40;99.90;;;;;;928150;152;27366;-72
2023/04/17 05:14:10;;;;;;;18.40;15.17;;;12.50;99.90;;;;;;925538;151;27382;-72
2023/04/17 05:16:36;;;;;;;18.00;16.17;;;12.50;99.90;;;;;;932883;152;27419;-72
2023/04/17 05:19:03;;;;;;;17.57;15.17;;;12.50;99.90;;;;;;929653;153;27322;-72
2023/04/17 05:21:30;;;;;;;15.83;14.20;;;12.60;99.90;;;;;;929985;153;27314;-72
2023/04/17 05:23:56;;;;;;;17.00;15.20;;;12.60;99.90;;;;;;929649;152;27475;-72
2023/04/17 05:26:23;;;;;;;17.37;15.57;;;12.60;99.90;;;;;;929585;151;27353;-72
2023/04/17 05:28:49;;;;;;;17.07;14.53;;;12.70;99.90;;;;;;929993;153;27353;-72
2023/04/17 05:31:16;;;;;;;17.13;15.47;;;12.70;99.90;;;;;;930134;151;27335;-72
2023/04/17 05:33:42;;;;;;;16.67;14.97;;;12.80;99.90;;;;;;929672;152;27353;-72
2023/04/17 05:36:09;;;;;;;17.70;14.03;;;13.00;99.90;;;;;;928501;151;27466;-72
2023/04/17 05:38:36;;;;;;;17.30;15.13;;;13.00;99.90;;;;;;929070;153;27367;-72
2023/04/17 05:41:02;;;;;;;15.93;14.23;;;13.20;99.90;;;;;;929506;153;27338;-72
2023/04/17 05:43:29;;;;;;;16.77;15.00;;;13.30;99.90;;;;;;930280;153;27390;-72
2023/04/17 05:45:55;;;;;;;15.32;13.83;;;13.40;99.90;;;;;;929064;153;27368;-72
2023/04/17 05:48:22;;;;;;;14.80;13.18;;;13.60;99.90;;;;;;928760;152;27366;-72
2023/04/17 05:50:48;;;;;;;15.70;14.10;;;13.80;99.90;;;;;;929217;153;27437;-72
2023/04/17 05:53:15;;;;;;;14.83;13.32;;;14.10;99.90;;;;;;930438;150;27515;-72
2023/04/17 05:55:42;;;;;;;14.90;13.40;;;14.40;99.90;;;;;;937887;149;27373;-72
2023/04/17 05:58:08;;;;;;;16.42;13.62;;;14.70;99.90;;;;;;945061;149;27377;-73
2023/04/17 06:00:35;;;;;;;13.85;12.45;;;14.90;99.90;;;;;;944242;149;27360;-73
2023/04/17 06:03:01;;;;;;;15.08;12.50;;;15.10;99.90;;;;;;944794;149;27297;-72
2023/04/17 06:05:28;;;;;;;13.48;12.18;;;15.20;99.50;;;;;;943921;149;27399;-72
2023/04/17 06:07:55;;;;;;;13.70;11.33;;;15.30;98.50;;;;;;945558;149;27319;-73
2023/04/17 06:10:21;;;;;;;14.23;12.80;;;15.30;97.80;;;;;;943593;149;27419;-73
2023/04/17 06:12:48;;;;;;;14.03;12.55;;;15.30;97.20;;;;;;957413;147;27388;-73
2023/04/17 06:15:14;;;;;;;13.78;12.37;;;15.20;96.70;;;;;;948911;149;27232;-73
2023/04/17 06:17:41;;;;;;;13.00;11.70;;;15.20;96.10;;;;;;933723;150;27348;-73
2023/04/17 06:20:10;;;;;;;13.85;12.45;;;15.10;95.80;;;;;;943590;148;27686;-72
2023/04/17 06:22:37;;;;;;;15.30;13.68;;;15.00;95.70;;;;;;944217;148;27352;-72
2023/04/17 06:25:03;;;;;;;14.38;12.88;;;14.90;95.60;;;;;;943528;148;27417;-73
2023/04/17 06:27:30;;;;;;;13.90;12.50;;;14.80;95.70;;;;;;943629;148;27317;-73
2023/04/17 06:29:57;;;;;;;15.28;12.98;;;14.70;95.90;;;;;;948040;147;27339;-73
2023/04/17 06:32:23;;;;;;;18.23;13.83;;;14.70;96.20;;;;;;939698;150;27355;-73
2023/04/17 06:34:50;;;;;;;15.58;13.80;;;14.60;96.30;;;;;;939254;150;27347;-73
2023/04/17 06:37:16;;;;;;;15.80;13.63;;;14.50;96.30;;;;;;939820;150;27339;-72
2023/04/17 06:39:43;;;;;;;14.60;13.08;;;14.50;96.40;;;;;;940064;150;27327;-73
2023/04/17 06:42:10;;;;;;;14.98;12.28;;;14.50;96.20;;;;;;939356;150;27386;-73
2023/04/17 06:44:36;;;;;;;14.87;13.17;;;14.40;96.80;;;;;;939884;149;27375;-73
2023/04/17 06:47:03;;;;;;;16.32;12.82;;;14.40;96.80;;;;;;942497;149;27345;-73
2023/04/17 06:49:32;;;;;;;18.23;13.15;;;14.30;96.90;;;;;;941891;149;27316;-73
2023/04/17 06:51:56;;;;;;;14.85;13.43;;;14.30;97.10;;;;;;942649;149;27380;-73
2023/04/17 06:54:23;;;;;;;14.35;12.85;;;14.30;97.10;;;;;;943335;149;27357;-73
2023/04/17 06:56:49;;;;;;;14.07;12.73;;;14.30;97.10;;;;;;939532;149;27405;-73
2023/04/17 06:59:16;;;;;;;13.72;12.23;;;14.30;97.10;;;;;;942228;147;28348;-72
2023/04/17 07:01:42;;;;;;;15.95;12.40;;;14.30;97.20;;;;;;935152;149;27453;-72
2023/04/17 07:04:09;;;;;;;13.83;12.13;;;14.30;97.20;;;;;;929551;149;27381;-73
2023/04/17 07:06:36;;;;;;;14.05;12.55;;;14.30;97.20;;;;;;939444;150;27399;-72
2023/04/17 07:09:02;;;;;;;14.13;12.47;;;14.30;97.30;;;;;;947443;147;27335;-73
2023/04/17 07:11:29;;;;;;;14.00;12.60;;;14.30;97.30;;;;;;942566;151;27308;-73
2023/04/17 07:13:55;;;;;;;13.67;12.27;;;14.30;97.40;;;;;;942268;151;27352;-73
2023/04/17 07:16:22;;;;;;;14.28;12.80;;;14.30;97.30;;;;;;942708;150;27344;-73
2023/04/17 07:18:51;;;;;;;13.87;12.53;;;14.30;97.10;;;;;;939635;148;27318;-73
2023/04/17 07:21:18;;;;;;;12.97;11.63;;;14.30;96.60;;;;;;933691;149;27262;-73
2023/04/17 07:23:45;;;;;;;14.10;12.60;;;14.30;96.90;;;;;;939909;150;27341;-72
2023/04/17 07:26:11;;;;;;;13.93;12.10;;;14.30;96.90;;;;;;948466;147;27402;-73
2023/04/17 07:28:38;;;;;;;14.60;11.30;;;14.40;97.00;;;;;;936169;149;27464;-73
2023/04/17 07:31:08;;;;;;;12.30;11.10;;;14.40;96.90;;;;;;932630;150;27305;-72
2023/04/17 07:33:31;;;;;;;11.93;10.78;;;14.40;96.90;;;;;;948210;147;27319;-73
2023/04/17 07:35:58;;;;;;;13.43;12.03;;;14.40;96.70;;;;;;935976;148;27309;-73
2023/04/17 07:38:24;;;;;;;12.85;11.65;;;14.40;96.50;;;;;;927598;150;27369;-72
2023/04/17 07:40:51;;;;;;;13.50;12.15;;;14.40;96.30;;;;;;946675;147;27286;-73
2023/04/17 07:43:17;;;;;;;13.20;11.90;;;14.40;96.10;;;;;;936780;148;27387;-72
2023/04/17 07:45:44;;;;;;;13.22;11.93;;;14.30;96.10;;;;;;933130;149;27326;-72
2023/04/17 07:48:11;;;;;;;13.78;11.95;;;14.30;96.20;;;;;;939629;149;27468;-73
2023/04/17 07:50:37;;;;;;;14.13;12.35;;;14.30;96.20;;;;;;936178;149;27358;-73
2023/04/17 07:53:04;;;;;;;15.03;12.10;;;14.30;96.30;;;;;;938669;150;27458;-73
2023/04/17 07:55:30;;;;;;;14.47;13.03;;;14.20;96.40;;;;;;939757;150;27355;-73
2023/04/17 07:57:57;;;;;;;16.67;14.10;;;14.20;96.60;;;;;;937000;150;27431;-73
2023/04/17 08:00:24;;;;;;;14.45;12.93;;;14.10;96.80;;;;;;933390;150;28104;-72
2023/04/17 08:02:51;;;;;;;14.50;12.87;;;14.10;97.00;;;;;;926425;150;27376;-73
2023/04/17 08:05:17;;;;;;;14.23;12.73;;;14.10;97.00;;;;;;928059;150;27397;-72
2023/04/17 08:07:43;;;;;;;13.45;11.95;;;14.00;97.10;;;;;;927195;150;27283;-72
2023/04/17 08:10:10;;;;;;;15.13;13.63;;;13.90;97.10;;;;;;927243;150;27358;-72
2023/04/17 08:12:37;;;;;;;13.93;12.50;;;13.90;97.30;;;;;;928105;150;27447;-73
2023/04/17 08:15:03;;;;;;;12.80;11.48;;;13.80;97.60;;;;;;927430;150;27400;-72
2023/04/17 08:17:30;;;;;;;13.22;11.93;;;13.80;98.00;;;;;;927801;150;27412;-73
2023/04/17 08:20:06;;;;;;;14.33;12.70;;;13.80;98.40;;;;;;927145;150;27311;-73
2023/04/17 08:22:27;;;;;;;13.50;12.10;;;13.80;98.40;;;;;;931841;148;27475;-72
2023/04/17 08:24:56;;;;;;;13.95;12.55;;;13.80;98.60;;;;;;919634;151;27451;-73
2023/04/17 08:27:19;;;;;;;13.15;11.85;;;13.80;98.80;;;;;;935279;148;27310;-73
2023/04/17 08:29:45;;;;;;;12.88;11.68;;;13.80;99.10;;;;;;924584;151;27256;-72
2023/04/17 08:32:12;;;;;;;13.83;12.30;;;13.80;99.30;;;;;;926499;151;27329;-73
2023/04/17 08:34:39;;;;;;;13.47;11.97;;;13.90;99.40;;;;;;920713;151;27365;-73
2023/04/17 08:37:05;;;;;;;12.70;11.38;;;13.90;99.40;;;;;;931617;149;27400;-72
2023/04/17 08:39:32;;;;;;;13.27;11.90;;;13.90;99.30;;;;;;932527;149;27274;-73
2023/04/17 08:42:01;;;;;;;13.35;11.73;;;14.00;99.30;;;;;;932975;149;27270;-72
2023/04/17 08:44:28;;;;;;;12.23;10.97;;;14.10;99.30;;;;;;931595;149;27385;-73
2023/04/17 08:46:57;;;;;;;13.57;11.57;;;14.10;99.00;;;;;;926193;150;27476;-73
2023/04/17 08:49:30;;;;;;;13.03;10.93;;;14.20;98.90;;;;;;926804;150;27441;-73
2023/04/17 08:51:56;;;;;;;12.90;11.55;;;14.20;98.90;;;;;;926127;150;27346;-73
2023/04/17 08:54:23;;;;;;;12.70;10.58;;;14.30;98.70;;;;;;926929;150;27466;-73
2023/04/17 08:56:49;;;;;;;12.37;11.10;;;14.30;98.70;;;;;;928780;150;27490;-73
2023/04/17 08:59:16;;;;;;;12.58;11.38;;;14.40;98.30;;;;;;938581;150;27358;-73
2023/04/17 09:02:07;;;;;;;11.53;9.75;;;14.40;98.70;;;;;;938001;150;27279;-73
2023/04/17 09:04:34;;;;;;;11.60;10.30;;;14.50;98.80;;;;;;938314;150;27418;-73
2023/04/17 09:07:00;;;;;;;11.40;10.30;;;14.60;99.00;;;;;;937413;150;27373;-77
2023/04/17 09:09:26;;;;;;;11.60;10.25;;;14.70;99.20;;;;;;938625;150;27484;-77
2023/04/17 09:12:09;;;;;;;10.60;9.50;;;14.90;99.40;;;;;;936521;150;27801;-77
2023/04/17 09:14:35;;;;;;;9.43;8.53;;;15.10;99.40;;;;;;920839;152;27291;-77
2023/04/17 09:17:01;;;;;;;8.95;8.15;;;15.30;99.10;;;;;;937376;150;27376;-77
2023/04/17 09:19:28;;;;;;;10.48;8.28;;;15.50;98.70;;;;;;937470;150;27474;-77
2023/04/17 09:21:54;;;;;;;9.10;8.30;;;15.70;97.80;;;;;;938424;150;27418;-77
2023/04/17 09:24:33;;;;;;;8.45;7.65;;;16.00;97.40;;;;;;937166;150;27296;-77
2023/04/17 09:27:18;;;;;;;7.47;6.80;;;16.40;99.70;;;;;;936457;150;27478;-77
2023/04/17 09:29:57;;;;;;;6.22;5.65;;;17.10;99.90;;;;;;938731;150;27362;-77
2023/04/17 09:32:24;;;;;;;6.95;5.97;;;18.10;99.90;;;;;;936424;150;27470;-78
2023/04/17 09:34:50;;;;;;;6.62;5.55;;;19.20;99.90;;;;;;951394;148;27394;-78
2023/04/17 09:37:16;;;;;;;6.10;5.50;;;20.30;99.90;;;;;;926847;149;27350;-78
2023/04/17 09:39:56;;;;;;;5.25;4.65;;;21.50;99.90;;;;;;927300;150;27312;-78
2023/04/17 09:42:22;;;;;;;3.90;3.60;;;22.60;98.40;;;;;;927557;150;27459;-78
2023/04/17 09:44:48;;;;;;;3.60;3.30;;;23.80;93.60;;;;;;940325;150;27855;-78
2023/04/17 09:47:16;;;;;;;3.55;3.08;;;24.50;85.10;;;;;;939708;150;27326;-78
2023/04/17 09:49:42;;;;;;;3.08;2.77;;;25.00;76.90;;;;;;939385;150;27275;-78
2023/04/17 09:52:08;;;;;;;3.67;2.20;;;25.20;71.10;;;;;;939212;150;27466;-78
2023/04/17 09:54:38;;;;;;;2.10;2.00;;;25.10;66.80;;;;;;944436;148;27444;-78
2023/04/17 09:57:07;;;;;;;1.98;1.77;;;24.80;62.30;;;;;;943032;148;27275;-77
2023/04/17 09:59:34;;;;;;;1.70;1.60;;;24.40;62.30;;;;;;943327;148;27337;-78
2023/04/17 10:02:01;;;;;;;1.70;1.60;;;23.90;62.10;;;;;;943709;148;27321;-78
2023/04/17 10:04:27;;;;;;;1.50;1.40;;;23.40;61.40;;;;;;942719;148;27870;-78
2023/04/17 10:06:53;;;;;;;3.15;1.70;;;22.90;60.70;;;;;;938797;152;27378;-78
2023/04/17 10:09:21;;;;;;;1.25;1.25;;;22.50;58.70;;;;;;943779;149;27328;-78
2023/04/17 10:11:47;;;;;;;1.60;1.50;;;22.10;60.00;;;;;;943154;148;27313;-78
2023/04/17 10:14:19;;;;;;;1.75;1.57;;;21.70;60.10;;;;;;931771;149;27329;-78
2023/04/17 10:16:46;;;;;;;1.47;1.37;;;21.40;61.40;;;;;;928237;150;27355;-78
2023/04/17 10:19:31;;;;;;;1.72;1.62;;;21.10;62.60;;;;;;939529;150;27426;-78
2023/04/17 10:22:18;;;;;;;1.70;1.60;;;21.00;62.90;;;;;;939284;150;27400;-78
2023/04/17 10:24:46;;;;;;;1.85;1.75;;;21.00;64.00;;;;;;940024;150;27327;-78
2023/04/17 10:27:27;;;;;;;1.82;1.60;;;21.00;61.40;;;;;;940763;149;27368;-79
2023/04/17 10:29:53;;;;;;;2.87;1.50;;;21.10;61.20;;;;;;942367;148;27828;-78
2023/04/17 10:32:20;;;;;;;1.15;1.15;;;21.20;61.80;;;;;;938439;150;27351;-78
2023/04/17 10:34:46;;;;;;;1.17;1.15;;;21.20;61.20;;;;;;946234;148;27385;-78
2023/04/17 10:37:15;;;;;;;1.22;1.22;;;21.20;60.30;;;;;;943664;148;27332;-79
2023/04/17 10:39:51;;;;;;;1.90;1.80;;;21.10;60.30;;;;;;944148;148;27349;-78
2023/04/17 10:42:17;;;;;;;1.40;1.30;;;21.00;59.40;;;;;;940965;150;27311;-78
2023/04/17 10:44:44;;;;;;;2.08;1.62;;;20.90;59.50;;;;;;941584;149;27354;-78
2023/04/17 10:47:13;;;;;;;1.70;1.60;;;20.70;58.20;;;;;;941027;149;27378;-78
2023/04/17 10:49:49;;;;;;;1.75;1.65;;;20.50;59.00;;;;;;923999;152;27297;-78
2023/04/17 10:52:34;;;;;;;1.80;1.60;;;20.30;59.80;;;;;;942830;148;27418;-78
2023/04/17 10:55:03;;;;;;;1.85;1.75;;;20.10;59.70;;;;;;943850;148;27316;-78
2023/04/17 10:57:51;;;;;;;2.35;2.15;;;19.90;59.60;;;;;;943827;148;27463;-78
2023/04/17 11:00:18;;;;;;;2.00;1.77;;;19.80;59.90;;;;;;943750;148;27474;-78
2023/04/17 11:02:45;;;;;;;1.62;1.52;;;19.60;60.00;;;;;;942110;149;27384;-78
2023/04/17 11:05:11;;;;;;;2.95;2.10;;;19.40;60.00;;;;;;942610;148;27311;-78
2023/04/17 11:07:38;;;;;;;1.47;1.37;;;19.30;60.50;;;;;;937381;150;27447;-78
2023/04/17 11:10:04;;;;;;;1.37;1.27;;;19.20;60.40;;;;;;938786;150;27374;-79
2023/04/17 11:12:31;;;;;;;1.52;1.40;;;19.20;59.30;;;;;;938544;150;27465;-79
2023/04/17 11:15:03;;;;;;;1.40;1.30;;;19.10;59.80;;;;;;938128;150;27387;-79
2023/04/17 11:17:30;;;;;;;2.17;1.40;;;19.00;60.30;;;;;;938122;150;27534;-79
2023/04/17 11:19:57;;;;;;;1.60;1.50;;;18.90;60.90;;;;;;944884;148;27309;-79
2023/04/17 11:22:23;;;;;;;1.60;1.50;;;18.90;60.40;;;;;;944349;148;27454;-79
2023/04/17 11:24:52;;;;;;;1.10;1.10;;;18.80;59.40;;;;;;928006;150;27468;-79
2023/04/17 11:27:16;;;;;;;1.70;1.50;;;18.70;59.80;;;;;;940964;147;27384;-79
2023/04/17 11:29:43;;;;;;;1.57;1.47;;;18.60;60.30;;;;;;929911;150;27330;-79
2023/04/17 11:32:10;;;;;;;1.50;1.40;;;18.60;61.10;;;;;;926056;154;27302;-79
2023/04/17 11:34:36;;;;;;;1.40;1.30;;;18.50;61.40;;;;;;926676;154;27447;-79
2023/04/17 11:37:03;;;;;;;1.50;1.40;;;18.50;61.80;;;;;;939553;149;27334;-79
2023/04/17 11:39:32;;;;;;;1.80;1.70;;;18.60;62.10;;;;;;943862;148;27310;-79
2023/04/17 11:41:59;;;;;;;1.70;1.60;;;18.60;62.10;;;;;;938175;150;27370;-79
2023/04/17 11:44:25;;;;;;;1.52;1.42;;;18.60;61.90;;;;;;938988;150;27373;-79
2023/04/17 11:46:52;;;;;;;1.60;1.50;;;18.70;61.80;;;;;;951068;148;27417;-79
2023/04/17 11:49:27;;;;;;;1.82;1.72;;;18.70;61.70;;;;;;951231;148;27312;-79
2023/04/17 11:51:54;;;;;;;1.55;1.45;;;18.70;62.00;;;;;;944178;149;27385;-79
2023/04/17 11:54:21;;;;;;;1.55;1.45;;;18.80;61.40;;;;;;937648;152;27441;-79
2023/04/17 11:57:06;;;;;;;1.57;1.47;;;18.80;61.60;;;;;;927506;152;27361;-79
2023/04/17 11:59:36;;;;;;;1.67;1.55;;;18.90;61.70;;;;;;935646;149;27408;-79
2023/04/17 12:02:02;;;;;;;1.55;1.45;;;18.90;61.50;;;;;;941195;149;27415;-80
2023/04/17 12:04:29;;;;;;;1.42;1.35;;;18.90;61.10;;;;;;941858;149;27326;-80
2023/04/17 12:06:55;;;;;;;1.80;1.70;;;18.90;60.90;;;;;;943060;148;27286;-80
2023/04/17 12:09:23;;;;;;;1.85;1.75;;;18.90;60.10;;;;;;942442;149;27767;-80
2023/04/17 12:11:48;;;;;;;1.70;1.60;;;18.80;60.60;;;;;;941689;149;27430;-80
2023/04/17 12:14:15;;;;;;;1.70;1.60;;;18.80;60.30;;;;;;941315;149;27298;-80
2023/04/17 12:16:41;;;;;;;1.60;1.50;;;18.70;59.50;;;;;;942532;149;27300;-80
2023/04/17 12:19:09;;;;;;;1.72;1.62;;;18.70;60.00;;;;;;942484;149;27446;-80
2023/04/17 12:21:34;;;;;;;1.57;1.47;;;18.60;60.20;;;;;;941832;149;27459;-80
2023/04/17 12:24:01;;;;;;;1.80;1.70;;;18.50;60.00;;;;;;943424;148;27403;-80
2023/04/17 12:26:28;;;;;;;1.82;1.57;;;18.40;60.00;;;;;;927842;150;27282;-80
2023/04/17 12:28:54;;;;;;;1.70;1.60;;;18.20;60.30;;;;;;948817;147;27331;-80
2023/04/17 12:31:21;;;;;;;1.87;1.72;;;18.10;60.70;;;;;;922190;150;27387;-80
2023/04/17 12:33:47;;;;;;;1.60;1.50;;;18.00;60.90;;;;;;943405;148;27246;-80